Terminal Aerodrome Forecast
Issued by NWS

Home | Current Version | Previous Version | Text Only | Print | Product List | Glossary On
Versions: 1 2 3 4 5 6 7 8 9 10 11 12 13 14 15 16 17 18 19 20 21 22 23 24 25 26 27 28 29 30
874
FTAK31 PAFA 271121
TAFAQT
TAF
PAQT 271121Z 2712/2812 18008KT P6SM BKN250
     FM271800 22012KT P6SM BKN250
     FM280000 23012KT P6SM OVC100
     FM280900 31006KT P6SM BKN005 OVC080=

USA.gov is the U.S. government's official web portal to all federal, state and local government web resources and services.